sensor_id;sensor_type;location;lat;lon;timestamp;pressure;altitude;pressure_sealevel;temperature;humidity
21960;BME280;11144;43.030;25.108;2022-10-31T00:00:36;99514.41;;;11.92;100.00
21960;BME280;11144;43.030;25.108;2022-10-31T00:02:10;99513.34;;;11.96;100.00
21960;BME280;11144;43.030;25.108;2022-10-31T00:03:43;99514.00;;;12.03;100.00
21960;BME280;11144;43.030;25.108;2022-10-31T00:05:16;99514.97;;;12.00;100.00
21960;BME280;11144;43.030;25.108;2022-10-31T00:06:49;99520.16;;;12.03;100.00
21960;BME280;11144;43.030;25.108;2022-10-31T00:08:24;99527.41;;;11.98;100.00
21960;BME280;11144;43.030;25.108;2022-10-31T00:09:57;99529.97;;;12.01;100.00
21960;BME280;11144;43.030;25.108;2022-10-31T00:11:29;99519.38;;;12.01;100.00
21960;BME280;11144;43.030;25.108;2022-10-31T00:13:02;99528.81;;;12.08;100.00
21960;BME280;11144;43.030;25.108;2022-10-31T00:14:36;99532.13;;;12.13;100.00
21960;BME280;11144;43.030;25.108;2022-10-31T00:16:16;99516.44;;;12.07;100.00
21960;BME280;11144;43.030;25.108;2022-10-31T00:17:49;99526.31;;;12.04;100.00
21960;BME280;11144;43.030;25.108;2022-10-31T00:19:23;99527.59;;;11.94;100.00
21960;BME280;11144;43.030;25.108;2022-10-31T00:20:59;99523.22;;;11.93;100.00
21960;BME280;11144;43.030;25.108;2022-10-31T00:22:32;99526.03;;;11.88;100.00
21960;BME280;11144;43.030;25.108;2022-10-31T00:24:07;99532.94;;;11.92;100.00
21960;BME280;11144;43.030;25.108;2022-10-31T00:25:41;99533.88;;;11.91;100.00
21960;BME280;11144;43.030;25.108;2022-10-31T00:27:14;99528.22;;;11.77;100.00
21960;BME280;11144;43.030;25.108;2022-10-31T00:28:47;99535.25;;;11.78;100.00
21960;BME280;11144;43.030;25.108;2022-10-31T00:30:21;99533.19;;;11.86;100.00
21960;BME280;11144;43.030;25.108;2022-10-31T00:31:54;99529.38;;;11.93;100.00
21960;BME280;11144;43.030;25.108;2022-10-31T00:33:27;99529.38;;;11.93;100.00
21960;BME280;11144;43.030;25.108;2022-10-31T00:35:00;99522.00;;;12.01;100.00
21960;BME280;11144;43.030;25.108;2022-10-31T00:36:33;99523.50;;;12.08;100.00
21960;BME280;11144;43.030;25.108;2022-10-31T00:38:06;99533.06;;;12.12;100.00
21960;BME280;11144;43.030;25.108;2022-10-31T00:39:41;99516.22;;;12.13;100.00
21960;BME280;11144;43.030;25.108;2022-10-31T00:41:16;99527.56;;;12.17;100.00
21960;BME280;11144;43.030;25.108;2022-10-31T00:42:49;99526.59;;;12.19;100.00
21960;BME280;11144;43.030;25.108;2022-10-31T00:44:22;99525.66;;;12.20;100.00
21960;BME280;11144;43.030;25.108;2022-10-31T00:45:56;99522.19;;;12.18;100.00
21960;BME280;11144;43.030;25.108;2022-10-31T00:47:30;99526.66;;;12.18;100.00
21960;BME280;11144;43.030;25.108;2022-10-31T00:49:03;99528.56;;;12.14;100.00
21960;BME280;11144;43.030;25.108;2022-10-31T00:50:36;99529.59;;;12.10;100.00
21960;BME280;11144;43.030;25.108;2022-10-31T00:52:09;99524.59;;;12.03;100.00
21960;BME280;11144;43.030;25.108;2022-10-31T00:53:42;99532.72;;;11.98;100.00
21960;BME280;11144;43.030;25.108;2022-10-31T00:55:17;99531.91;;;11.96;100.00
21960;BME280;11144;43.030;25.108;2022-10-31T00:56:50;99531.22;;;11.91;100.00
21960;BME280;11144;43.030;25.108;2022-10-31T00:58:23;99525.25;;;11.86;100.00
21960;BME280;11144;43.030;25.108;2022-10-31T00:59:56;99533.09;;;11.88;100.00
21960;BME280;11144;43.030;25.108;2022-10-31T01:01:29;99535.03;;;11.84;100.00
21960;BME280;11144;43.030;25.108;2022-10-31T01:03:03;99535.91;;;11.85;100.00
21960;BME280;11144;43.030;25.108;2022-10-31T01:04:36;99543.13;;;11.80;100.00
21960;BME280;11144;43.030;25.108;2022-10-31T01:06:10;99537.09;;;11.76;100.00
21960;BME280;11144;43.030;25.108;2022-10-31T01:07:43;99540.94;;;11.68;100.00
21960;BME280;11144;43.030;25.108;2022-10-31T01:09:17;99546.28;;;11.66;100.00
21960;BME280;11144;43.030;25.108;2022-10-31T01:11:00;99537.41;;;11.67;100.00
21960;BME280;11144;43.030;25.108;2022-10-31T01:12:36;99546.09;;;11.72;100.00
21960;BME280;11144;43.030;25.108;2022-10-31T01:14:09;99548.63;;;11.75;100.00
21960;BME280;11144;43.030;25.108;2022-10-31T01:15:43;99544.00;;;11.80;100.00
21960;BME280;11144;43.030;25.108;2022-10-31T01:17:16;99543.72;;;11.88;100.00
21960;BME280;11144;43.030;25.108;2022-10-31T01:18:51;99517.63;;;11.77;100.00
21960;BME280;11144;43.030;25.108;2022-10-31T01:20:25;99545.25;;;11.93;100.00
21960;BME280;11144;43.030;25.108;2022-10-31T01:21:58;99550.56;;;11.93;100.00
21960;BME280;11144;43.030;25.108;2022-10-31T01:23:34;99545.16;;;11.96;100.00
21960;BME280;11144;43.030;25.108;2022-10-31T01:25:08;99544.16;;;11.99;100.00
21960;BME280;11144;43.030;25.108;2022-10-31T01:26:43;99545.91;;;12.00;100.00
21960;BME280;11144;43.030;25.108;2022-10-31T01:28:17;99543.22;;;12.01;100.00
21960;BME280;11144;43.030;25.108;2022-10-31T01:29:49;99548.50;;;12.01;100.00
21960;BME280;11144;43.030;25.108;2022-10-31T01:31:24;99532.00;;;11.93;100.00
21960;BME280;11144;43.030;25.108;2022-10-31T01:32:58;99540.84;;;11.94;100.00
21960;BME280;11144;43.030;25.108;2022-10-31T01:34:31;99537.41;;;11.92;100.00
21960;BME280;11144;43.030;25.108;2022-10-31T01:36:15;99544.75;;;11.84;100.00
21960;BME280;11144;43.030;25.108;2022-10-31T01:37:48;99533.53;;;11.77;100.00
21960;BME280;11144;43.030;25.108;2022-10-31T01:39:21;99549.19;;;11.83;100.00
21960;BME280;11144;43.030;25.108;2022-10-31T01:40:55;99561.53;;;11.84;100.00
21960;BME280;11144;43.030;25.108;2022-10-31T01:42:28;99550.75;;;11.89;100.00
21960;BME280;11144;43.030;25.108;2022-10-31T01:44:46;99552.47;;;11.90;100.00
21960;BME280;11144;43.030;25.108;2022-10-31T01:45:58;99543.53;;;11.92;100.00
21960;BME280;11144;43.030;25.108;2022-10-31T01:47:37;99541.16;;;11.86;100.00
21960;BME280;11144;43.030;25.108;2022-10-31T01:49:13;99546.25;;;11.91;100.00
21960;BME280;11144;43.030;25.108;2022-10-31T01:50:51;99536.53;;;11.91;100.00
21960;BME280;11144;43.030;25.108;2022-10-31T01:52:29;99548.22;;;11.86;100.00
21960;BME280;11144;43.030;25.108;2022-10-31T01:54:06;99556.31;;;11.81;100.00
21960;BME280;11144;43.030;25.108;2022-10-31T01:55:42;99549.41;;;11.77;100.00
21960;BME280;11144;43.030;25.108;2022-10-31T01:57:20;99561.97;;;11.72;100.00
21960;BME280;11144;43.030;25.108;2022-10-31T01:58:58;99565.66;;;11.68;100.00
21960;BME280;11144;43.030;25.108;2022-10-31T02:00:33;99562.81;;;11.73;100.00
21960;BME280;11144;43.030;25.108;2022-10-31T02:02:06;99566.41;;;11.72;100.00
21960;BME280;11144;43.030;25.108;2022-10-31T02:03:40;99558.63;;;11.67;100.00
21960;BME280;11144;43.030;25.108;2022-10-31T02:05:16;99563.34;;;11.82;100.00
21960;BME280;11144;43.030;25.108;2022-10-31T02:06:53;99563.13;;;11.88;100.00
21960;BME280;11144;43.030;25.108;2022-10-31T02:08:29;99565.50;;;11.96;100.00
21960;BME280;11144;43.030;25.108;2022-10-31T02:10:02;99559.22;;;11.98;100.00
21960;BME280;11144;43.030;25.108;2022-10-31T02:11:36;99564.28;;;12.04;100.00
21960;BME280;11144;43.030;25.108;2022-10-31T02:13:10;99553.56;;;12.07;100.00
21960;BME280;11144;43.030;25.108;2022-10-31T02:14:51;99560.34;;;12.14;100.00
21960;BME280;11144;43.030;25.108;2022-10-31T02:16:24;99568.19;;;12.17;100.00
21960;BME280;11144;43.030;25.108;2022-10-31T02:17:58;99568.41;;;12.11;100.00
21960;BME280;11144;43.030;25.108;2022-10-31T02:19:38;99574.59;;;12.12;100.00
21960;BME280;11144;43.030;25.108;2022-10-31T02:21:19;99578.13;;;12.12;100.00
21960;BME280;11144;43.030;25.108;2022-10-31T02:23:25;99577.97;;;12.15;100.00
21960;BME280;11144;43.030;25.108;2022-10-31T02:25:36;99572.81;;;12.12;100.00
21960;BME280;11144;43.030;25.108;2022-10-31T02:31:33;99569.03;;;12.19;100.00
21960;BME280;11144;43.030;25.108;2022-10-31T02:33:17;99570.75;;;12.20;100.00
21960;BME280;11144;43.030;25.108;2022-10-31T02:34:58;99569.81;;;12.21;100.00
21960;BME280;11144;43.030;25.108;2022-10-31T02:36:42;99565.56;;;12.17;100.00
21960;BME280;11144;43.030;25.108;2022-10-31T02:38:34;99560.25;;;12.17;100.00
21960;BME280;11144;43.030;25.108;2022-10-31T02:40:17;99565.44;;;12.20;100.00
21960;BME280;11144;43.030;25.108;2022-10-31T02:42:24;99560.88;;;12.24;100.00
21960;BME280;11144;43.030;25.108;2022-10-31T02:44:06;99569.53;;;12.29;100.00
21960;BME280;11144;43.030;25.108;2022-10-31T02:45:45;99573.84;;;12.31;100.00
21960;BME280;11144;43.030;25.108;2022-10-31T02:47:25;99566.56;;;12.36;100.00
21960;BME280;11144;43.030;25.108;2022-10-31T02:49:05;99559.41;;;12.38;100.00
21960;BME280;11144;43.030;25.108;2022-10-31T02:50:47;99550.75;;;12.33;100.00
21960;BME280;11144;43.030;25.108;2022-10-31T02:52:25;99565.88;;;12.31;100.00
21960;BME280;11144;43.030;25.108;2022-10-31T02:54:04;99576.66;;;12.27;100.00
21960;BME280;11144;43.030;25.108;2022-10-31T02:55:51;99584.78;;;12.22;100.00
21960;BME280;11144;43.030;25.108;2022-10-31T02:57:29;99584.94;;;12.19;100.00
21960;BME280;11144;43.030;25.108;2022-10-31T02:59:04;99585.94;;;12.15;100.00
21960;BME280;11144;43.030;25.108;2022-10-31T03:00:47;99588.59;;;12.15;100.00
21960;BME280;11144;43.030;25.108;2022-10-31T03:04:45;99600.94;;;12.16;100.00
21960;BME280;11144;43.030;25.108;2022-10-31T03:06:28;99595.53;;;12.19;100.00
21960;BME280;11144;43.030;25.108;2022-10-31T03:08:08;99594.66;;;12.19;100.00
21960;BME280;11144;43.030;25.108;2022-10-31T03:09:48;99591.84;;;12.23;100.00
21960;BME280;11144;43.030;25.108;2022-10-31T03:11:32;99582.28;;;12.19;100.00
21960;BME280;11144;43.030;25.108;2022-10-31T03:13:13;99588.38;;;12.21;100.00
21960;BME280;11144;43.030;25.108;2022-10-31T03:14:54;99591.03;;;12.21;100.00
21960;BME280;11144;43.030;25.108;2022-10-31T03:16:36;99597.31;;;12.19;100.00
21960;BME280;11144;43.030;25.108;2022-10-31T03:18:18;99601.06;;;12.13;100.00
21960;BME280;11144;43.030;25.108;2022-10-31T03:19:59;99599.44;;;12.09;100.00
21960;BME280;11144;43.030;25.108;2022-10-31T03:21:37;99602.41;;;12.00;100.00
21960;BME280;11144;43.030;25.108;2022-10-31T03:23:14;99601.63;;;11.98;100.00
21960;BME280;11144;43.030;25.108;2022-10-31T03:24:55;99614.06;;;11.96;100.00
21960;BME280;11144;43.030;25.108;2022-10-31T03:26:30;99603.34;;;11.99;100.00
21960;BME280;11144;43.030;25.108;2022-10-31T03:28:04;99587.66;;;11.93;100.00
21960;BME280;11144;43.030;25.108;2022-10-31T03:29:40;99602.41;;;12.00;100.00
21960;BME280;11144;43.030;25.108;2022-10-31T03:31:18;99606.81;;;12.01;100.00
21960;BME280;11144;43.030;25.108;2022-10-31T03:32:54;99601.47;;;12.03;100.00
21960;BME280;11144;43.030;25.108;2022-10-31T03:34:31;99596.31;;;11.98;100.00
21960;BME280;11144;43.030;25.108;2022-10-31T03:36:07;99603.47;;;11.96;100.00
21960;BME280;11144;43.030;25.108;2022-10-31T03:37:42;99617.19;;;12.07;100.00
21960;BME280;11144;43.030;25.108;2022-10-31T03:39:20;99610.03;;;12.09;100.00
21960;BME280;11144;43.030;25.108;2022-10-31T03:40:57;99616.28;;;12.08;100.00
21960;BME280;11144;43.030;25.108;2022-10-31T03:42:34;99606.56;;;12.07;100.00
21960;BME280;11144;43.030;25.108;2022-10-31T03:44:13;99607.44;;;12.08;100.00
21960;BME280;11144;43.030;25.108;2022-10-31T03:45:51;99614.41;;;12.10;100.00
21960;BME280;11144;43.030;25.108;2022-10-31T03:47:25;99613.53;;;12.10;100.00
21960;BME280;11144;43.030;25.108;2022-10-31T03:48:59;99616.97;;;12.13;100.00
21960;BME280;11144;43.030;25.108;2022-10-31T03:50:38;99615.19;;;12.14;100.00
21960;BME280;11144;43.030;25.108;2022-10-31T03:52:19;99606.56;;;12.07;100.00
21960;BME280;11144;43.030;25.108;2022-10-31T03:53:56;99613.06;;;12.23;100.00
21960;BME280;11144;43.030;25.108;2022-10-31T03:55:37;99613.66;;;12.30;100.00
21960;BME280;11144;43.030;25.108;2022-10-31T03:57:16;99611.69;;;12.35;100.00
21960;BME280;11144;43.030;25.108;2022-10-31T03:58:58;99616.00;;;12.37;100.00
21960;BME280;11144;43.030;25.108;2022-10-31T04:00:34;99613.31;;;12.39;100.00
21960;BME280;11144;43.030;25.108;2022-10-31T04:02:14;99619.38;;;12.42;100.00
21960;BME280;11144;43.030;25.108;2022-10-31T04:03:49;99617.66;;;12.41;100.00
21960;BME280;11144;43.030;25.108;2022-10-31T04:05:22;99612.47;;;12.38;100.00
21960;BME280;11144;43.030;25.108;2022-10-31T04:07:01;99619.53;;;12.38;100.00
21960;BME280;11144;43.030;25.108;2022-10-31T04:08:42;99628.25;;;12.41;100.00
21960;BME280;11144;43.030;25.108;2022-10-31T04:10:21;99621.09;;;12.43;100.00
21960;BME280;11144;43.030;25.108;2022-10-31T04:12:05;99633.31;;;12.47;100.00
21960;BME280;11144;43.030;25.108;2022-10-31T04:13:59;99621.59;;;12.53;100.00
21960;BME280;11144;43.030;25.108;2022-10-31T04:15:35;99633.09;;;12.53;100.00
21960;BME280;11144;43.030;25.108;2022-10-31T04:17:13;99638.38;;;12.53;100.00
21960;BME280;11144;43.030;25.108;2022-10-31T04:18:49;99637.41;;;12.56;100.00
21960;BME280;11144;43.030;25.108;2022-10-31T04:20:29;99652.34;;;12.58;100.00
21960;BME280;11144;43.030;25.108;2022-10-31T04:22:03;99639.88;;;12.60;100.00
21960;BME280;11144;43.030;25.108;2022-10-31T04:23:37;99636.31;;;12.61;100.00
21960;BME280;11144;43.030;25.108;2022-10-31T04:25:25;99642.47;;;12.62;100.00
21960;BME280;11144;43.030;25.108;2022-10-31T04:26:59;99643.31;;;12.62;100.00
21960;BME280;11144;43.030;25.108;2022-10-31T04:28:33;99643.31;;;12.62;100.00
21960;BME280;11144;43.030;25.108;2022-10-31T04:30:07;99649.63;;;12.60;100.00
21960;BME280;11144;43.030;25.108;2022-10-31T04:31:43;99652.22;;;12.61;100.00
21960;BME280;11144;43.030;25.108;2022-10-31T04:33:17;99647.03;;;12.58;100.00
21960;BME280;11144;43.030;25.108;2022-10-31T04:34:51;99648.75;;;12.59;100.00
21960;BME280;11144;43.030;25.108;2022-10-31T04:36:24;99654.94;;;12.60;100.00
21960;BME280;11144;43.030;25.108;2022-10-31T04:37:59;99648.75;;;12.59;100.00
21960;BME280;11144;43.030;25.108;2022-10-31T04:39:32;99648.75;;;12.59;100.00
21960;BME280;11144;43.030;25.108;2022-10-31T04:41:25;99643.59;;;12.56;100.00
21960;BME280;11144;43.030;25.108;2022-10-31T04:43:05;99637.41;;;12.56;100.00
21960;BME280;11144;43.030;25.108;2022-10-31T04:44:39;99626.28;;;12.46;100.00
21960;BME280;11144;43.030;25.108;2022-10-31T04:46:12;99643.69;;;12.53;100.00
21960;BME280;11144;43.030;25.108;2022-10-31T04:47:45;99642.94;;;12.50;100.00
21960;BME280;11144;43.030;25.108;2022-10-31T04:49:18;99645.63;;;12.48;100.00
21960;BME280;11144;43.030;25.108;2022-10-31T04:50:51;99652.81;;;12.46;100.00
21960;BME280;11144;43.030;25.108;2022-10-31T04:52:25;99651.19;;;12.42;100.00
21960;BME280;11144;43.030;25.108;2022-10-31T04:53:59;99656.63;;;12.39;100.00
21960;BME280;11144;43.030;25.108;2022-10-31T04:55:39;99665.72;;;12.32;100.00
21960;BME280;11144;43.030;25.108;2022-10-31T04:57:20;99654.53;;;12.24;100.00
21960;BME280;11144;43.030;25.108;2022-10-31T04:58:54;99658.91;;;12.25;100.00
21960;BME280;11144;43.030;25.108;2022-10-31T05:00:29;99657.31;;;12.21;100.00
21960;BME280;11144;43.030;25.108;2022-10-31T05:02:02;99671.59;;;12.17;100.00
21960;BME280;11144;43.030;25.108;2022-10-31T05:03:49;99677.00;;;12.14;100.00
21960;BME280;11144;43.030;25.108;2022-10-31T05:05:23;99673.56;;;12.12;100.00
21960;BME280;11144;43.030;25.108;2022-10-31T05:06:56;99668.47;;;12.06;100.00
21960;BME280;11144;43.030;25.108;2022-10-31T05:08:29;99679.88;;;12.08;100.00
21960;BME280;11144;43.030;25.108;2022-10-31T05:10:08;99686.09;;;12.07;100.00
21960;BME280;11144;43.030;25.108;2022-10-31T05:11:43;99679.16;;;12.03;100.00
21960;BME280;11144;43.030;25.108;2022-10-31T05:13:35;99689.88;;;12.00;100.00
21960;BME280;11144;43.030;25.108;2022-10-31T05:15:17;99682.84;;;11.99;100.00
21960;BME280;11144;43.030;25.108;2022-10-31T05:17:09;99701.47;;;11.98;100.00
21960;BME280;11144;43.030;25.108;2022-10-31T05:19:02;99692.75;;;11.94;100.00
21960;BME280;11144;43.030;25.108;2022-10-31T05:20:53;99698.97;;;11.93;100.00
21960;BME280;11144;43.030;25.108;2022-10-31T05:22:35;99694.75;;;11.88;100.00
21960;BME280;11144;43.030;25.108;2022-10-31T05:24:09;99701.03;;;11.85;100.00
21960;BME280;11144;43.030;25.108;2022-10-31T05:25:46;99697.56;;;11.83;100.00
21960;BME280;11144;43.030;25.108;2022-10-31T05:27:19;99708.19;;;11.83;100.00
21960;BME280;11144;43.030;25.108;2022-10-31T05:28:53;99709.91;;;11.84;100.00
21960;BME280;11144;43.030;25.108;2022-10-31T05:30:29;99704.50;;;11.87;100.00
21960;BME280;11144;43.030;25.108;2022-10-31T05:32:03;99707.03;;;11.90;100.00
21960;BME280;11144;43.030;25.108;2022-10-31T05:33:55;99703.78;;;11.82;100.00
21960;BME280;11144;43.030;25.108;2022-10-31T05:35:54;99714.28;;;11.85;100.00
21960;BME280;11144;43.030;25.108;2022-10-31T05:37:31;99717.84;;;11.84;100.00
21960;BME280;11144;43.030;25.108;2022-10-31T05:39:04;99712.53;;;11.84;100.00
21960;BME280;11144;43.030;25.108;2022-10-31T05:40:46;99712.50;;;11.86;100.00
21960;BME280;11144;43.030;25.108;2022-10-31T05:42:20;99723.63;;;11.95;100.00
21960;BME280;11144;43.030;25.108;2022-10-31T05:43:52;99716.63;;;11.94;100.00
21960;BME280;11144;43.030;25.108;2022-10-31T05:45:31;99718.19;;;12.00;100.00
21960;BME280;11144;43.030;25.108;2022-10-31T05:47:07;99722.56;;;12.01;100.00
21960;BME280;11144;43.030;25.108;2022-10-31T05:49:18;99723.31;;;12.04;100.00
21960;BME280;11144;43.030;25.108;2022-10-31T05:51:10;99725.91;;;12.06;100.00
21960;BME280;11144;43.030;25.108;2022-10-31T05:52:45;99728.41;;;12.10;100.00
21960;BME280;11144;43.030;25.108;2022-10-31T05:54:31;99723.00;;;12.13;100.00
21960;BME280;11144;43.030;25.108;2022-10-31T05:56:06;99724.50;;;12.20;100.00
21960;BME280;11144;43.030;25.108;2022-10-31T05:57:40;99734.88;;;12.26;100.00
21960;BME280;11144;43.030;25.108;2022-10-31T05:59:13;99724.06;;;12.32;100.00
21960;BME280;11144;43.030;25.108;2022-10-31T06:00:46;99727.28;;;12.40;100.00
21960;BME280;11144;43.030;25.108;2022-10-31T06:02:20;99725.34;;;12.45;100.00
21960;BME280;11144;43.030;25.108;2022-10-31T06:04:29;99717.88;;;12.56;100.00
21960;BME280;11144;43.030;25.108;2022-10-31T06:06:04;99726.28;;;12.67;100.00
21960;BME280;11144;43.030;25.108;2022-10-31T06:07:41;99727.59;;;12.79;100.00
21960;BME280;11144;43.030;25.108;2022-10-31T06:09:13;99729.03;;;12.87;100.00
21960;BME280;11144;43.030;25.108;2022-10-31T06:10:48;99733.13;;;12.96;100.00
21960;BME280;11144;43.030;25.108;2022-10-31T06:12:29;99729.06;;;13.09;100.00
21960;BME280;11144;43.030;25.108;2022-10-31T06:14:17;99728.63;;;13.21;100.00
21960;BME280;11144;43.030;25.108;2022-10-31T06:16:01;99718.34;;;13.33;100.00
21960;BME280;11144;43.030;25.108;2022-10-31T06:17:43;99732.19;;;13.41;100.00
21960;BME280;11144;43.030;25.108;2022-10-31T06:19:30;99742.63;;;13.68;100.00
21960;BME280;11144;43.030;25.108;2022-10-31T06:21:04;99737.41;;;14.06;100.00
21960;BME280;11144;43.030;25.108;2022-10-31T06:22:37;99740.78;;;14.50;100.00
21960;BME280;11144;43.030;25.108;2022-10-31T06:24:10;99740.63;;;14.91;100.00
21960;BME280;11144;43.030;25.108;2022-10-31T06:26:19;99747.69;;;15.48;100.00
21960;BME280;11144;43.030;25.108;2022-10-31T06:27:54;99751.75;;;15.90;100.00
21960;BME280;11144;43.030;25.108;2022-10-31T06:29:33;99745.09;;;16.33;100.00
21960;BME280;11144;43.030;25.108;2022-10-31T06:31:11;99739.19;;;16.76;100.00
21960;BME280;11144;43.030;25.108;2022-10-31T06:32:44;99734.09;;;17.20;100.00
21960;BME280;11144;43.030;25.108;2022-10-31T06:34:17;99734.19;;;17.65;100.00
21960;BME280;11144;43.030;25.108;2022-10-31T06:35:50;99735.38;;;18.04;100.00
21960;BME280;11144;43.030;25.108;2022-10-31T06:37:24;99737.69;;;18.40;100.00
21960;BME280;11144;43.030;25.108;2022-10-31T06:39:03;99737.31;;;18.74;100.00
21960;BME280;11144;43.030;25.108;2022-10-31T06:40:37;99733.69;;;19.03;100.00
21960;BME280;11144;43.030;25.108;2022-10-31T06:42:25;99738.81;;;19.48;100.00
21960;BME280;11144;43.030;25.108;2022-10-31T06:44:00;99741.00;;;19.82;100.00
21960;BME280;11144;43.030;25.108;2022-10-31T06:46:02;99739.19;;;20.22;100.00
21960;BME280;11144;43.030;25.108;2022-10-31T06:47:50;99747.22;;;20.61;100.00
21960;BME280;11144;43.030;25.108;2022-10-31T06:49:59;99737.91;;;21.15;100.00
21960;BME280;11144;43.030;25.108;2022-10-31T06:51:33;99742.44;;;21.50;100.00
21960;BME280;11144;43.030;25.108;2022-10-31T06:53:09;99747.06;;;21.73;100.00
21960;BME280;11144;43.030;25.108;2022-10-31T06:54:43;99743.09;;;21.90;100.00
21960;BME280;11144;43.030;25.108;2022-10-31T06:56:18;99744.66;;;22.16;100.00
21960;BME280;11144;43.030;25.108;2022-10-31T06:57:57;99752.84;;;22.38;100.00
21960;BME280;11144;43.030;25.108;2022-10-31T06:59:36;99752.16;;;22.58;100.00
21960;BME280;11144;43.030;25.108;2022-10-31T07:01:30;99750.09;;;22.72;100.00
21960;BME280;11144;43.030;25.108;2022-10-31T07:03:09;99750.50;;;22.90;100.00
21960;BME280;11144;43.030;25.108;2022-10-31T07:04:43;99748.28;;;23.06;100.00
21960;BME280;11144;43.030;25.108;2022-10-31T07:06:20;99738.00;;;23.33;100.00
21960;BME280;11144;43.030;25.108;2022-10-31T07:07:53;99743.66;;;23.41;100.00
21960;BME280;11144;43.030;25.108;2022-10-31T07:09:27;99730.97;;;23.53;100.00
21960;BME280;11144;43.030;25.108;2022-10-31T07:11:05;99738.91;;;23.76;100.00
21960;BME280;11144;43.030;25.108;2022-10-31T07:12:38;99730.50;;;23.90;100.00
21960;BME280;11144;43.030;25.108;2022-10-31T07:14:13;99731.50;;;24.00;100.00
21960;BME280;11144;43.030;25.108;2022-10-31T07:15:47;99737.38;;;24.26;100.00
21960;BME280;11144;43.030;25.108;2022-10-31T07:17:23;99732.97;;;24.45;100.00
21960;BME280;11144;43.030;25.108;2022-10-31T07:19:03;99725.47;;;24.69;100.00
21960;BME280;11144;43.030;25.108;2022-10-31T07:20:36;99725.81;;;24.76;100.00
21960;BME280;11144;43.030;25.108;2022-10-31T07:22:10;99726.13;;;24.82;100.00
21960;BME280;11144;43.030;25.108;2022-10-31T07:23:47;99725.94;;;25.04;100.00
21960;BME280;11144;43.030;25.108;2022-10-31T07:25:41;99720.34;;;25.26;100.00
21960;BME280;11144;43.030;25.108;2022-10-31T07:27:26;99726.38;;;25.39;100.00
21960;BME280;11144;43.030;25.108;2022-10-31T07:28:59;99722.75;;;25.59;100.00
21960;BME280;11144;43.030;25.108;2022-10-31T07:30:32;99726.13;;;25.52;100.00
21960;BME280;11144;43.030;25.108;2022-10-31T07:32:07;99726.47;;;25.58;100.00
21960;BME280;11144;43.030;25.108;2022-10-31T07:33:46;99722.78;;;25.78;100.00
21960;BME280;11144;43.030;25.108;2022-10-31T07:35:45;99723.97;;;25.95;100.00
21960;BME280;11144;43.030;25.108;2022-10-31T07:37:22;99723.09;;;26.14;100.00
21960;BME280;11144;43.030;25.108;2022-10-31T07:38:56;99723.81;;;26.35;100.00
21960;BME280;11144;43.030;25.108;2022-10-31T07:40:30;99714.22;;;26.50;100.00
21960;BME280;11144;43.030;25.108;2022-10-31T07:42:04;99721.38;;;26.70;100.00
21960;BME280;11144;43.030;25.108;2022-10-31T07:43:38;99722.72;;;26.93;100.00
21960;BME280;11144;43.030;25.108;2022-10-31T07:45:34;99716.63;;;27.18;100.00
21960;BME280;11144;43.030;25.108;2022-10-31T07:47:39;99731.19;;;27.26;100.00
21960;BME280;11144;43.030;25.108;2022-10-31T07:49:31;99730.28;;;27.35;100.00
21960;BME280;11144;43.030;25.108;2022-10-31T07:51:23;99730.53;;;27.42;100.00
21960;BME280;11144;43.030;25.108;2022-10-31T07:53:15;99727.91;;;27.50;100.00
21960;BME280;11144;43.030;25.108;2022-10-31T07:54:48;99742.41;;;27.68;100.00
21960;BME280;11144;43.030;25.108;2022-10-31T07:56:27;99739.31;;;27.80;100.00
21960;BME280;11144;43.030;25.108;2022-10-31T07:58:01;99745.16;;;27.95;100.00
21960;BME280;11144;43.030;25.108;2022-10-31T07:59:35;99735.59;;;28.08;100.00
21960;BME280;11144;43.030;25.108;2022-10-31T08:01:10;99734.63;;;28.17;100.00
21960;BME280;11144;43.030;25.108;2022-10-31T08:03:00;99736.97;;;28.12;100.00
21960;BME280;11144;43.030;25.108;2022-10-31T08:04:55;99733.09;;;28.15;100.00
21960;BME280;11144;43.030;25.108;2022-10-31T08:07:04;99730.00;;;28.10;100.00
21960;BME280;11144;43.030;25.108;2022-10-31T08:08:41;99729.59;;;28.05;100.00
21960;BME280;11144;43.030;25.108;2022-10-31T08:10:15;99728.91;;;28.03;100.00
21960;BME280;11144;43.030;25.108;2022-10-31T08:11:48;99711.03;;;27.73;100.00
21960;BME280;11144;43.030;25.108;2022-10-31T08:13:21;99721.19;;;27.27;100.00
21960;BME280;11144;43.030;25.108;2022-10-31T08:14:55;99712.63;;;27.22;100.00
21960;BME280;11144;43.030;25.108;2022-10-31T08:16:29;99712.63;;;27.22;100.00
21960;BME280;11144;43.030;25.108;2022-10-31T08:18:11;99724.50;;;27.48;100.00
21960;BME280;11144;43.030;25.108;2022-10-31T08:19:44;99723.06;;;27.53;100.00
21960;BME280;11144;43.030;25.108;2022-10-31T08:21:20;99726.22;;;27.49;100.00
21960;BME280;11144;43.030;25.108;2022-10-31T08:22:55;99714.22;;;27.42;100.00
21960;BME280;11144;43.030;25.108;2022-10-31T08:24:28;99713.91;;;27.18;100.00
21960;BME280;11144;43.030;25.108;2022-10-31T08:26:02;99715.28;;;26.95;100.00
21960;BME280;11144;43.030;25.108;2022-10-31T08:27:37;99713.19;;;26.79;100.00
21960;BME280;11144;43.030;25.108;2022-10-31T08:29:17;99718.59;;;26.89;100.00
21960;BME280;11144;43.030;25.108;2022-10-31T08:30:51;99714.19;;;26.69;100.00
21960;BME280;11144;43.030;25.108;2022-10-31T08:33:04;99718.97;;;27.03;100.00
21960;BME280;11144;43.030;25.108;2022-10-31T08:34:58;99716.00;;;27.33;100.00